createdAt,value
2023-05-04T00:02:29.971Z,9.85
2023-05-04T00:05:15.741Z,11.88
2023-05-04T00:08:01.370Z,12.07
2023-05-04T00:10:47.163Z,11.23
2023-05-04T00:13:32.637Z,11.35
2023-05-04T00:16:19.677Z,12.90
2023-05-04T00:19:05.099Z,11.77
2023-05-04T00:21:50.861Z,11.63
2023-05-04T00:24:36.671Z,12.98
2023-05-04T00:27:22.106Z,10.77
2023-05-04T00:30:08.717Z,12.05
2023-05-04T00:32:54.243Z,11.93
2023-05-04T00:35:40.269Z,12.27
2023-05-04T00:38:26.028Z,12.10
2023-05-04T00:41:11.588Z,14.52
2023-05-04T00:43:59.812Z,14.05
2023-05-04T00:46:45.969Z,14.13
2023-05-04T00:49:31.413Z,13.50
2023-05-04T00:52:17.754Z,15.18
2023-05-04T00:55:04.010Z,15.77
2023-05-04T00:57:50.783Z,16.52
2023-05-04T01:00:37.045Z,15.13
2023-05-04T01:03:22.534Z,17.98
2023-05-04T01:06:32.286Z,14.45
2023-05-04T01:09:37.395Z,16.27
2023-05-04T01:12:37.978Z,16.27
2023-05-04T01:15:24.003Z,14.75
2023-05-04T01:18:09.820Z,16.10
2023-05-04T01:20:55.397Z,17.05
2023-05-04T01:23:40.711Z,17.90
2023-05-04T01:26:30.278Z,16.20
2023-05-04T01:29:22.308Z,17.02
2023-05-04T01:32:08.453Z,16.58
2023-05-04T01:34:54.286Z,17.10
2023-05-04T01:37:40.851Z,17.10
2023-05-04T01:40:26.797Z,16.98
2023-05-04T01:43:12.589Z,17.58
2023-05-04T01:45:58.263Z,16.95
2023-05-04T01:48:43.752Z,18.17
2023-05-04T01:51:29.196Z,17.73
2023-05-04T01:54:14.963Z,18.08
2023-05-04T01:57:01.680Z,17.83
2023-05-04T01:59:47.307Z,18.85
2023-05-04T02:02:33.069Z,16.55
2023-05-04T02:05:18.552Z,18.33
2023-05-04T02:08:04.310Z,16.45
2023-05-04T02:10:49.791Z,16.55
2023-05-04T02:13:36.539Z,16.85
2023-05-04T02:16:22.104Z,17.27
2023-05-04T02:19:07.388Z,16.70
2023-05-04T02:21:53.092Z,18.90
2023-05-04T02:24:40.410Z,18.08
2023-05-04T02:27:26.045Z,17.27
2023-05-04T02:30:12.603Z,16.95
2023-05-04T02:32:58.001Z,18.02
2023-05-04T02:35:43.458Z,17.85
2023-05-04T02:38:29.227Z,17.23
2023-05-04T02:41:14.865Z,15.65
2023-05-04T02:44:00.322Z,17.70
2023-05-04T02:46:45.778Z,18.42
2023-05-04T02:49:31.230Z,19.20
2023-05-04T02:52:16.901Z,17.48
2023-05-04T02:55:05.716Z,19.85
2023-05-04T02:57:50.913Z,21.50
2023-05-04T03:00:36.393Z,21.02
2023-05-04T03:03:21.830Z,21.98
2023-05-04T03:06:07.370Z,22.85
2023-05-04T03:08:52.508Z,23.65
2023-05-04T03:11:38.079Z,22.40
2023-05-04T03:14:23.605Z,22.67
2023-05-04T03:17:09.056Z,22.83
2023-05-04T03:19:54.847Z,22.38
2023-05-04T03:22:40.282Z,24.58
2023-05-04T03:25:26.237Z,24.17
2023-05-04T03:28:12.054Z,22.08
2023-05-04T03:30:57.256Z,23.17
2023-05-04T03:33:42.817Z,25.98
2023-05-04T03:36:28.314Z,25.67
2023-05-04T03:39:13.971Z,26.02
2023-05-04T03:41:59.275Z,28.25
2023-05-04T03:44:44.775Z,25.77
2023-05-04T03:47:30.386Z,28.70
2023-05-04T03:50:15.875Z,26.02
2023-05-04T03:53:01.207Z,23.92
2023-05-04T03:55:46.620Z,24.98
2023-05-04T03:58:32.116Z,25.80
2023-05-04T04:01:17.787Z,24.73
2023-05-04T04:04:03.473Z,25.30
2023-05-04T04:06:49.422Z,24.13
2023-05-04T04:09:35.049Z,23.23
2023-05-04T04:12:20.852Z,23.52
2023-05-04T04:15:07.092Z,22.73
2023-05-04T04:17:52.927Z,24.98
2023-05-04T04:20:38.715Z,23.58
2023-05-04T04:23:24.729Z,23.63
2023-05-04T04:26:10.457Z,23.25
2023-05-04T04:28:55.895Z,24.48
2023-05-04T04:31:42.096Z,24.17
2023-05-04T04:34:27.463Z,24.13
2023-05-04T04:37:13.079Z,22.55
2023-05-04T04:39:58.572Z,21.90
2023-05-04T04:42:44.186Z,22.55
2023-05-04T04:45:30.504Z,23.08
2023-05-04T04:48:17.275Z,23.48
2023-05-04T04:51:02.996Z,22.95
2023-05-04T04:53:48.593Z,23.80
2023-05-04T04:56:40.597Z,26.52
2023-05-04T04:59:25.973Z,23.98
2023-05-04T05:02:11.522Z,25.55
2023-05-04T05:04:57.551Z,25.23
2023-05-04T05:07:43.008Z,25.85
2023-05-04T05:10:28.558Z,22.73
2023-05-04T05:13:14.194Z,22.70
2023-05-04T05:16:00.193Z,25.35
2023-05-04T05:18:45.921Z,21.40
2023-05-04T05:21:31.309Z,22.92
2023-05-04T05:24:17.257Z,22.58
2023-05-04T05:27:02.985Z,22.08
2023-05-04T05:29:48.247Z,22.10
2023-05-04T05:32:33.685Z,21.90
2023-05-04T05:35:19.901Z,21.42
2023-05-04T05:38:05.096Z,20.60
2023-05-04T05:40:50.540Z,21.45
2023-05-04T05:43:37.148Z,21.95
2023-05-04T05:46:25.571Z,20.77
2023-05-04T05:49:11.473Z,20.58
2023-05-04T05:51:58.577Z,21.10
2023-05-04T05:54:43.857Z,20.05
2023-05-04T05:57:29.465Z,20.08
2023-05-04T06:00:15.693Z,18.42
2023-05-04T06:03:01.109Z,18.92
2023-05-04T06:05:47.078Z,19.70
2023-05-04T06:08:32.892Z,19.38
2023-05-04T06:11:18.603Z,18.67
2023-05-04T06:14:04.384Z,19.65
2023-05-04T06:16:49.849Z,18.20
2023-05-04T06:19:39.676Z,17.30
2023-05-04T06:22:25.256Z,18.20
2023-05-04T06:25:11.545Z,18.33
2023-05-04T06:27:57.020Z,17.17
2023-05-04T06:30:42.784Z,16.42
2023-05-04T06:33:28.458Z,16.90
2023-05-04T06:36:14.212Z,16.98
2023-05-04T06:38:59.792Z,16.02
2023-05-04T06:41:45.554Z,17.35
2023-05-04T06:44:34.188Z,17.17
2023-05-04T06:47:19.811Z,16.98
2023-05-04T06:50:11.981Z,15.32
2023-05-04T06:53:06.869Z,16.70
2023-05-04T06:55:52.602Z,16.90
2023-05-04T06:58:38.173Z,16.45
2023-05-04T07:01:23.805Z,17.70
2023-05-04T07:04:09.887Z,15.60
2023-05-04T07:06:55.396Z,15.95
2023-05-04T07:09:42.083Z,14.43
2023-05-04T07:12:27.978Z,14.68
2023-05-04T07:15:13.858Z,15.73
2023-05-04T07:18:00.008Z,15.57
2023-05-04T07:20:45.664Z,15.70
2023-05-04T07:23:31.362Z,14.55
2023-05-04T07:26:17.309Z,14.57
2023-05-04T07:29:02.552Z,15.80
2023-05-04T07:31:48.137Z,15.05
2023-05-04T07:34:45.101Z,15.73
2023-05-04T07:37:31.611Z,15.85
2023-05-04T07:40:17.081Z,15.45
2023-05-04T07:43:02.250Z,15.40
2023-05-04T07:45:48.256Z,15.07
2023-05-04T07:48:34.638Z,14.48
2023-05-04T07:51:20.033Z,15.00
2023-05-04T07:54:05.974Z,14.63
2023-05-04T07:56:51.470Z,14.43
2023-05-04T07:59:36.769Z,16.10
2023-05-04T08:02:22.598Z,15.90
2023-05-04T08:05:09.708Z,14.10
2023-05-04T08:07:55.356Z,14.48
2023-05-04T08:10:40.916Z,14.48
2023-05-04T08:13:26.123Z,13.93
2023-05-04T08:16:12.100Z,14.13
2023-05-04T08:18:57.950Z,14.80
2023-05-04T08:21:43.174Z,14.20
2023-05-04T08:24:28.685Z,16.88
2023-05-04T08:27:16.970Z,14.55
2023-05-04T08:30:02.293Z,15.40
2023-05-04T08:32:51.156Z,14.30
2023-05-04T08:35:37.899Z,13.43
2023-05-04T08:38:23.334Z,14.18
2023-05-04T08:41:09.113Z,14.43
2023-05-04T08:43:54.866Z,14.23
2023-05-04T08:46:41.277Z,14.18
2023-05-04T08:49:27.371Z,13.45
2023-05-04T08:52:13.997Z,14.13
2023-05-04T08:54:59.730Z,14.13
2023-05-04T08:57:45.772Z,13.98
2023-05-04T09:00:33.223Z,14.43
2023-05-04T09:03:19.867Z,14.13
2023-05-04T09:06:07.965Z,13.70
2023-05-04T09:08:53.574Z,14.23
2023-05-04T09:11:39.422Z,13.80
2023-05-04T09:14:33.615Z,14.27
2023-05-04T09:17:27.996Z,14.05
2023-05-04T09:20:13.712Z,14.27
2023-05-04T09:23:09.535Z,14.18
2023-05-04T09:25:56.694Z,13.45
2023-05-04T09:28:43.523Z,13.52
2023-05-04T09:31:29.077Z,14.00
2023-05-04T09:34:15.206Z,13.00
2023-05-04T09:37:02.250Z,12.82
2023-05-04T09:39:53.925Z,13.88
2023-05-04T09:42:39.976Z,13.15
2023-05-04T09:45:25.738Z,13.82
2023-05-04T09:48:21.716Z,15.25
2023-05-04T09:51:07.984Z,13.57
2023-05-04T09:53:54.077Z,13.05
2023-05-04T09:56:49.270Z,13.48
2023-05-04T09:59:35.396Z,14.02
2023-05-04T10:02:23.169Z,12.60
2023-05-04T10:05:10.722Z,12.75
2023-05-04T10:07:59.997Z,14.65
2023-05-04T10:10:46.029Z,12.70
2023-05-04T10:13:31.686Z,13.15
2023-05-04T10:16:29.002Z,13.20
2023-05-04T10:19:40.632Z,13.20
2023-05-04T10:22:38.408Z,12.85
2023-05-04T10:25:54.886Z,14.38
2023-05-04T10:28:40.285Z,14.00
2023-05-04T10:31:36.440Z,13.52
2023-05-04T10:34:30.614Z,12.88
2023-05-04T10:37:22.061Z,13.77
2023-05-04T10:40:08.635Z,12.80
2023-05-04T10:42:54.205Z,13.05
2023-05-04T10:45:41.124Z,13.07
2023-05-04T10:48:36.417Z,13.13
2023-05-04T10:51:26.539Z,12.50
2023-05-04T10:54:19.547Z,14.70
2023-05-04T10:57:10.371Z,11.75
2023-05-04T10:59:59.850Z,12.07
2023-05-04T11:02:48.587Z,12.45
2023-05-04T11:05:46.996Z,12.63
2023-05-04T11:08:33.179Z,12.13
2023-05-04T11:11:18.679Z,14.15
2023-05-04T11:14:04.531Z,13.82
2023-05-04T11:16:50.075Z,12.90
2023-05-04T11:19:35.980Z,12.88
2023-05-04T11:22:21.918Z,12.55
2023-05-04T11:25:08.669Z,13.38
2023-05-04T11:27:54.120Z,13.15
2023-05-04T11:30:41.331Z,13.70
2023-05-04T11:33:26.699Z,13.27
2023-05-04T11:36:12.456Z,13.75
2023-05-04T11:38:57.779Z,15.27
2023-05-04T11:41:44.663Z,13.73
2023-05-04T11:44:30.563Z,13.77
2023-05-04T11:47:16.445Z,13.60
2023-05-04T11:50:02.208Z,14.55
2023-05-04T11:52:48.103Z,14.38
2023-05-04T11:55:33.533Z,13.90
2023-05-04T11:58:25.755Z,15.25
2023-05-04T12:01:11.224Z,14.25
2023-05-04T12:03:57.203Z,14.90
2023-05-04T12:06:43.106Z,14.30
2023-05-04T12:09:29.197Z,15.07
2023-05-04T12:12:20.426Z,14.07
2023-05-04T12:15:06.663Z,14.18
2023-05-04T12:17:52.382Z,14.60
2023-05-04T12:20:38.146Z,15.65
2023-05-04T12:23:23.944Z,16.38
2023-05-04T12:26:10.596Z,15.77
2023-05-04T12:28:56.555Z,16.08
2023-05-04T12:31:42.363Z,15.55
2023-05-04T12:34:27.905Z,16.33
2023-05-04T12:37:13.497Z,16.65
2023-05-04T12:39:59.076Z,14.80
2023-05-04T12:42:44.648Z,15.52
2023-05-04T12:45:30.358Z,15.55
2023-05-04T12:48:16.127Z,15.85
2023-05-04T12:51:04.176Z,14.93
2023-05-04T12:53:49.764Z,16.48
2023-05-04T12:56:35.387Z,15.75
2023-05-04T12:59:21.840Z,15.73
2023-05-04T13:02:07.872Z,14.43
2023-05-04T13:04:53.495Z,18.08
2023-05-04T13:07:39.239Z,16.90
2023-05-04T13:10:25.233Z,16.90
2023-05-04T13:13:10.571Z,15.77
2023-05-04T13:15:57.340Z,17.90
2023-05-04T13:18:43.370Z,17.40
2023-05-04T13:21:28.650Z,18.20
2023-05-04T13:24:14.207Z,17.27
2023-05-04T13:27:00.201Z,17.67
2023-05-04T13:29:46.083Z,17.33
2023-05-04T13:32:32.181Z,18.13
2023-05-04T13:35:18.313Z,16.35
2023-05-04T13:38:03.894Z,16.73
2023-05-04T13:40:49.468Z,17.55
2023-05-04T13:43:35.024Z,17.30
2023-05-04T13:46:21.641Z,17.50
2023-05-04T13:49:07.064Z,18.55
2023-05-04T13:51:52.677Z,18.05
2023-05-04T13:54:38.928Z,18.55
2023-05-04T13:58:11.534Z,18.63
2023-05-04T14:01:14.479Z,18.58
2023-05-04T14:04:04.211Z,19.40
2023-05-04T14:06:50.979Z,17.40
2023-05-04T14:09:40.846Z,18.52
2023-05-04T14:12:29.158Z,18.83
2023-05-04T14:15:29.455Z,18.60
2023-05-04T14:18:30.795Z,18.50
2023-05-04T14:21:21.633Z,18.10
2023-05-04T14:24:54.068Z,17.40
2023-05-04T14:28:49.495Z,19.63
2023-05-04T14:31:37.784Z,18.90
2023-05-04T14:34:30.423Z,18.85
2023-05-04T14:37:20.119Z,19.03
2023-05-04T14:40:36.785Z,17.92
2023-05-04T14:43:23.202Z,18.50
2023-05-04T14:46:09.656Z,19.23
2023-05-04T14:52:32.383Z,17.25
2023-05-04T14:55:23.019Z,17.92
2023-05-04T14:58:09.815Z,17.55
2023-05-04T15:01:00.605Z,17.58
2023-05-04T15:03:54.252Z,11.43
2023-05-04T15:06:42.209Z,7.53
2023-05-04T15:09:33.639Z,8.27
2023-05-04T15:12:20.282Z,7.68
2023-05-04T15:15:12.005Z,6.57
2023-05-04T15:18:16.772Z,6.65
2023-05-04T15:21:16.527Z,6.70
2023-05-04T15:24:10.092Z,6.97
2023-05-04T15:26:59.227Z,5.90
2023-05-04T15:29:45.483Z,6.55
2023-05-04T15:32:31.697Z,6.40
2023-05-04T15:35:23.929Z,6.45
2023-05-04T15:38:10.372Z,6.30
2023-05-04T15:40:56.055Z,6.30
2023-05-04T15:43:43.406Z,6.45
2023-05-04T15:46:29.616Z,6.70
2023-05-04T15:49:17.808Z,5.65
2023-05-04T15:52:03.695Z,6.40
2023-05-04T15:54:49.451Z,5.50
2023-05-04T15:57:34.958Z,6.60
2023-05-04T16:00:23.962Z,5.38
2023-05-04T16:03:09.610Z,4.80
2023-05-04T16:05:56.051Z,4.80
2023-05-04T16:08:41.941Z,4.85
2023-05-04T16:11:27.497Z,4.00
2023-05-04T16:14:14.196Z,4.80
2023-05-04T16:17:03.416Z,4.28
2023-05-04T16:19:49.177Z,4.65
2023-05-04T16:22:34.788Z,4.25
2023-05-04T16:25:20.518Z,4.20
2023-05-04T16:28:05.710Z,3.80
2023-05-04T16:30:51.424Z,4.25
2023-05-04T16:33:36.765Z,4.70
2023-05-04T16:36:22.309Z,4.75
2023-05-04T16:39:07.587Z,4.28
2023-05-04T16:41:53.159Z,4.50
2023-05-04T16:44:38.728Z,4.53
2023-05-04T16:47:24.238Z,4.20
2023-05-04T16:50:11.411Z,3.75
2023-05-04T16:52:56.722Z,3.67
2023-05-04T16:55:42.391Z,3.75
2023-05-04T16:58:28.741Z,2.88
2023-05-04T17:01:14.424Z,3.25
2023-05-04T17:04:00.041Z,3.58
2023-05-04T17:06:45.801Z,2.60
2023-05-04T17:09:31.186Z,2.88
2023-05-04T17:12:16.854Z,2.92
2023-05-04T17:15:03.575Z,2.88
2023-05-04T17:17:49.370Z,3.10
2023-05-04T17:20:34.785Z,2.80
2023-05-04T17:23:23.566Z,2.88
2023-05-04T17:26:10.382Z,2.83
2023-05-04T17:28:55.948Z,2.60
2023-05-04T17:31:41.387Z,2.60
2023-05-04T17:34:26.833Z,2.58
2023-05-04T17:37:12.639Z,2.50
2023-05-04T17:39:58.217Z,2.58
2023-05-04T17:42:43.821Z,2.97
2023-05-04T17:45:29.262Z,3.20
2023-05-04T17:48:16.316Z,3.13
2023-05-04T17:51:02.060Z,3.95
2023-05-04T17:53:47.854Z,3.08
2023-05-04T17:56:33.309Z,3.58
2023-05-04T17:59:21.345Z,3.88
2023-05-04T18:02:07.352Z,3.35
2023-05-04T18:04:53.193Z,4.10
2023-05-04T18:07:39.747Z,4.22
2023-05-04T18:10:27.940Z,3.85
2023-05-04T18:13:13.563Z,3.90
2023-05-04T18:15:59.536Z,4.28
2023-05-04T18:18:45.332Z,4.28
2023-05-04T18:21:30.677Z,4.75
2023-05-04T18:24:17.063Z,5.20
2023-05-04T18:27:02.768Z,4.60
2023-05-04T18:29:48.811Z,4.40
2023-05-04T18:32:35.021Z,4.30
2023-05-04T18:35:22.147Z,4.43
2023-05-04T18:38:07.905Z,4.15
2023-05-04T18:40:53.726Z,4.53
2023-05-04T18:43:39.100Z,4.90
2023-05-04T18:46:24.871Z,5.28
2023-05-04T18:49:10.817Z,5.57
2023-05-04T18:51:56.686Z,5.63
2023-05-04T18:54:42.540Z,5.55
2023-05-04T18:57:30.077Z,5.32
2023-05-04T19:00:16.006Z,5.63
2023-05-04T19:03:01.972Z,5.63
2023-05-04T19:05:48.027Z,5.75
2023-05-04T19:08:34.140Z,5.40
2023-05-04T19:11:19.899Z,5.72
2023-05-04T19:14:05.590Z,5.97
2023-05-04T19:16:51.040Z,5.63
2023-05-04T19:19:39.504Z,5.57
2023-05-04T19:22:25.960Z,5.90
2023-05-04T19:25:15.664Z,6.07
2023-05-04T19:28:09.339Z,6.80
2023-05-04T19:30:54.727Z,6.65
2023-05-04T19:33:48.042Z,7.32
2023-05-04T19:36:34.538Z,7.53
2023-05-04T19:39:20.713Z,6.15
2023-05-04T19:42:06.559Z,7.55
2023-05-04T19:44:52.046Z,6.68
2023-05-04T19:47:38.734Z,6.25
2023-05-04T19:50:24.465Z,7.10
2023-05-04T19:53:11.151Z,6.88
2023-05-04T19:56:02.692Z,7.20
2023-05-04T19:58:51.315Z,6.90
2023-05-04T20:01:36.844Z,6.63
2023-05-04T20:04:22.339Z,6.82
2023-05-04T20:07:08.300Z,6.82
2023-05-04T20:09:53.932Z,7.72
2023-05-04T20:12:39.416Z,8.05
2023-05-04T20:15:25.183Z,8.82
2023-05-04T20:18:11.165Z,7.15
2023-05-04T20:20:57.343Z,7.43
2023-05-04T20:23:43.613Z,7.95
2023-05-04T20:26:29.247Z,7.72
2023-05-04T20:29:14.600Z,7.30
2023-05-04T20:32:01.541Z,7.88
2023-05-04T20:34:47.265Z,7.00
2023-05-04T20:37:32.851Z,7.70
2023-05-04T20:40:18.610Z,7.63
2023-05-04T20:43:04.338Z,8.27
2023-05-04T20:45:49.713Z,7.43
2023-05-04T20:48:35.841Z,8.10
2023-05-04T20:51:21.502Z,8.02
2023-05-04T20:54:07.280Z,8.57
2023-05-04T20:56:52.914Z,8.55
2023-05-04T20:59:38.115Z,9.52
2023-05-04T21:02:23.812Z,10.43
2023-05-04T21:05:09.777Z,11.75
2023-05-04T21:07:55.600Z,13.50
2023-05-04T21:10:41.347Z,12.23
2023-05-04T21:13:27.013Z,12.07
2023-05-04T21:16:13.901Z,11.52
2023-05-04T21:18:59.704Z,10.52
2023-05-04T21:21:45.220Z,10.15
2023-05-04T21:24:32.292Z,9.32
2023-05-04T21:27:17.988Z,7.95
2023-05-04T21:30:05.269Z,7.20
2023-05-04T21:32:51.305Z,7.38
2023-05-04T21:35:36.777Z,6.70
2023-05-04T21:38:22.516Z,6.80
2023-05-04T21:41:16.524Z,5.68
2023-05-04T21:44:02.403Z,5.13
2023-05-04T21:46:47.731Z,4.75
2023-05-04T21:49:33.315Z,5.43
2023-05-04T21:52:19.505Z,5.68
2023-05-04T21:55:05.180Z,4.90
2023-05-04T21:57:50.769Z,4.50
2023-05-04T22:00:36.656Z,4.55
2023-05-04T22:03:22.357Z,5.50
2023-05-04T22:06:08.488Z,4.32
2023-05-04T22:08:53.907Z,5.00
2023-05-04T22:11:39.426Z,4.20
2023-05-04T22:14:24.917Z,4.07
2023-05-04T22:17:10.375Z,3.72
2023-05-04T22:19:56.156Z,4.03
2023-05-04T22:22:41.339Z,3.50
2023-05-04T22:25:27.091Z,2.30
2023-05-04T22:28:12.560Z,1.60
2023-05-04T22:30:59.668Z,1.42
2023-05-04T22:33:45.945Z,1.80
2023-05-04T22:36:31.205Z,1.70
2023-05-04T22:39:16.958Z,1.67
2023-05-04T22:42:02.897Z,1.75
2023-05-04T22:44:48.454Z,1.92
2023-05-04T22:47:34.031Z,2.15
2023-05-04T22:50:19.793Z,2.10
2023-05-04T22:53:05.651Z,3.03
2023-05-04T22:55:51.188Z,1.67
2023-05-04T22:58:37.293Z,1.75
2023-05-04T23:01:23.068Z,2.25
2023-05-04T23:04:09.350Z,2.00
2023-05-04T23:06:55.280Z,1.65
2023-05-04T23:09:45.366Z,1.55
2023-05-04T23:12:30.927Z,1.70
2023-05-04T23:15:16.844Z,1.55
2023-05-04T23:18:02.382Z,1.90
2023-05-04T23:20:47.786Z,1.77
2023-05-04T23:23:34.532Z,1.70
2023-05-04T23:26:19.996Z,1.90
2023-05-04T23:29:05.005Z,1.85
2023-05-04T23:31:50.836Z,2.08
2023-05-04T23:34:36.533Z,1.92
2023-05-04T23:37:22.773Z,2.05
2023-05-04T23:40:09.159Z,2.17
2023-05-04T23:42:54.536Z,2.10
2023-05-04T23:45:40.078Z,2.22
2023-05-04T23:48:25.596Z,2.40
2023-05-04T23:51:11.340Z,1.85
2023-05-04T23:53:56.844Z,2.28
2023-05-04T23:56:42.207Z,2.05
2023-05-04T23:59:27.959Z,1.80
